createdAt,value
2023-05-20T00:01:53.643Z,93.99
2023-05-20T00:04:20.983Z,93.99
2023-05-20T00:06:47.821Z,93.98
2023-05-20T00:09:14.597Z,94.23
2023-05-20T00:11:41.457Z,94.16
2023-05-20T00:14:08.177Z,94.15
2023-05-20T00:16:35.083Z,94.17
2023-05-20T00:19:02.061Z,94.16
2023-05-20T00:21:29.780Z,94.19
2023-05-20T00:23:56.674Z,94.15
2023-05-20T00:26:23.484Z,94.26
2023-05-20T00:28:50.202Z,94.21
2023-05-20T00:31:16.973Z,94.49
2023-05-20T00:33:43.718Z,94.29
2023-05-20T00:36:10.535Z,94.41
2023-05-20T00:38:37.740Z,94.43
2023-05-20T00:41:04.552Z,94.49
2023-05-20T00:43:31.261Z,94.27
2023-05-20T00:45:58.254Z,94.30
2023-05-20T00:48:25.078Z,94.46
2023-05-20T00:50:52.118Z,94.28
2023-05-20T00:53:19.178Z,94.30
2023-05-20T00:55:45.943Z,94.23
2023-05-20T00:58:13.103Z,94.17
2023-05-20T01:00:40.097Z,94.37
2023-05-20T01:03:07.080Z,94.27
2023-05-20T01:05:34.023Z,94.32
2023-05-20T01:08:01.136Z,94.16
2023-05-20T01:10:30.594Z,94.24
2023-05-20T01:13:00.103Z,94.23
2023-05-20T01:15:28.178Z,94.37
2023-05-20T01:18:01.745Z,94.49
2023-05-20T01:20:30.581Z,94.61
2023-05-20T01:22:57.707Z,94.43
2023-05-20T01:25:25.668Z,94.54
2023-05-20T01:27:54.445Z,94.38
2023-05-20T01:30:22.234Z,94.43
2023-05-20T01:32:53.053Z,94.47
2023-05-20T01:35:21.851Z,94.53
2023-05-20T01:37:49.624Z,94.63
2023-05-20T01:40:18.533Z,94.81
2023-05-20T01:42:46.773Z,94.81
2023-05-20T01:45:13.612Z,94.88
2023-05-20T01:47:40.982Z,94.71
2023-05-20T01:50:08.334Z,94.70
2023-05-20T01:52:35.051Z,94.99
2023-05-20T01:55:01.869Z,94.92
2023-05-20T01:57:28.626Z,94.94
2023-05-20T01:59:55.377Z,94.76
2023-05-20T02:02:22.125Z,95.01
2023-05-20T02:04:51.835Z,95.12
2023-05-20T02:07:19.151Z,95.04
2023-05-20T02:09:46.991Z,94.97
2023-05-20T02:12:17.258Z,95.12
2023-05-20T02:14:45.475Z,95.22
2023-05-20T02:17:12.972Z,95.22
2023-05-20T02:19:39.779Z,95.23
2023-05-20T02:22:07.277Z,95.20
2023-05-20T02:24:34.060Z,95.15
2023-05-20T02:27:01.870Z,95.10
2023-05-20T02:29:28.699Z,94.92
2023-05-20T02:31:55.524Z,95.07
2023-05-20T02:34:22.387Z,94.96
2023-05-20T02:36:49.282Z,94.84
2023-05-20T02:39:17.165Z,94.95
2023-05-20T02:41:44.085Z,95.28
2023-05-20T02:44:10.875Z,94.89
2023-05-20T02:46:37.801Z,94.85
2023-05-20T02:49:04.689Z,94.92
2023-05-20T02:51:33.971Z,95.09
2023-05-20T02:54:00.882Z,94.99
2023-05-20T02:56:28.803Z,94.95
2023-05-20T02:58:55.620Z,94.95
2023-05-20T03:01:23.549Z,95.11
2023-05-20T03:03:50.367Z,94.98
2023-05-20T03:06:17.217Z,94.95
2023-05-20T03:08:43.941Z,95.22
2023-05-20T03:11:10.790Z,94.94
2023-05-20T03:13:38.540Z,94.98
2023-05-20T03:16:05.698Z,94.89
2023-05-20T03:18:32.444Z,95.17
2023-05-20T03:20:59.252Z,95.11
2023-05-20T03:23:26.262Z,95.02
2023-05-20T03:25:53.106Z,95.22
2023-05-20T03:28:19.857Z,95.25
2023-05-20T03:30:46.661Z,95.01
2023-05-20T03:33:13.502Z,95.28
2023-05-20T03:35:40.270Z,95.10
2023-05-20T03:38:07.116Z,95.27
2023-05-20T03:40:33.866Z,95.16
2023-05-20T03:43:00.539Z,95.07
2023-05-20T03:45:27.410Z,95.04
2023-05-20T03:47:54.161Z,95.17
2023-05-20T03:50:21.143Z,95.00
2023-05-20T03:52:47.856Z,95.09
2023-05-20T03:55:15.359Z,95.04
2023-05-20T03:57:42.781Z,95.16
2023-05-20T04:00:12.259Z,95.10
2023-05-20T04:02:39.077Z,95.01
2023-05-20T04:05:08.764Z,95.00
2023-05-20T04:07:36.100Z,95.07
2023-05-20T04:10:04.846Z,94.90
2023-05-20T04:12:32.910Z,95.10
2023-05-20T04:15:03.371Z,94.83
2023-05-20T04:17:31.753Z,94.80
2023-05-20T04:20:00.183Z,94.86
2023-05-20T04:22:27.482Z,94.77
2023-05-20T04:24:55.117Z,94.87
2023-05-20T04:27:24.024Z,94.83
2023-05-20T04:29:50.705Z,94.88
2023-05-20T04:32:19.240Z,94.66
2023-05-20T04:34:46.998Z,94.83
2023-05-20T04:37:14.098Z,94.70
2023-05-20T04:39:41.018Z,94.58
2023-05-20T04:42:07.823Z,94.60
2023-05-20T04:44:35.146Z,94.71
2023-05-20T04:47:01.911Z,94.56
2023-05-20T04:49:31.110Z,94.69
2023-05-20T04:51:58.822Z,94.75
2023-05-20T04:54:25.735Z,94.79
2023-05-20T04:56:52.730Z,94.68
2023-05-20T04:59:19.503Z,94.63
2023-05-20T05:01:46.483Z,94.49
2023-05-20T05:04:13.258Z,94.19
2023-05-20T05:06:40.116Z,94.21
2023-05-20T05:09:08.284Z,94.29
2023-05-20T05:11:35.036Z,94.28
2023-05-20T05:14:01.685Z,93.90
2023-05-20T05:16:28.659Z,93.92
2023-05-20T05:18:55.396Z,93.75
2023-05-20T05:21:22.121Z,93.74
2023-05-20T05:23:48.932Z,93.47
2023-05-20T05:26:15.584Z,93.54
2023-05-20T05:28:43.608Z,93.53
2023-05-20T05:31:12.282Z,93.22
2023-05-20T05:33:39.056Z,93.02
2023-05-20T05:36:06.706Z,93.14
2023-05-20T05:38:33.655Z,92.96
2023-05-20T05:41:00.546Z,92.97
2023-05-20T05:43:27.456Z,93.00
2023-05-20T05:45:54.388Z,92.88
2023-05-20T05:48:22.550Z,92.78
2023-05-20T05:50:49.223Z,92.82
2023-05-20T05:53:17.012Z,92.76
2023-05-20T05:55:43.927Z,92.88
2023-05-20T05:58:10.677Z,92.71
2023-05-20T06:00:37.410Z,92.67
2023-05-20T06:03:04.489Z,92.77
2023-05-20T06:05:32.161Z,92.55
2023-05-20T06:07:59.007Z,92.26
2023-05-20T06:10:25.868Z,92.23
2023-05-20T06:12:52.820Z,92.06
2023-05-20T06:15:20.210Z,91.97
2023-05-20T06:17:47.218Z,91.95
2023-05-20T06:20:14.173Z,91.87
2023-05-20T06:22:40.962Z,91.88
2023-05-20T06:25:09.914Z,91.68
2023-05-20T06:27:36.777Z,91.77
2023-05-20T06:30:04.839Z,91.57
2023-05-20T06:32:32.903Z,91.54
2023-05-20T06:34:59.772Z,91.56
2023-05-20T06:37:26.595Z,91.40
2023-05-20T06:39:54.234Z,91.22
2023-05-20T06:42:21.965Z,90.94
2023-05-20T06:44:49.202Z,90.55
2023-05-20T06:47:17.427Z,90.09
2023-05-20T06:49:47.339Z,90.01
2023-05-20T06:52:15.733Z,89.95
2023-05-20T06:54:43.195Z,89.76
2023-05-20T06:57:13.091Z,89.68
2023-05-20T06:59:40.226Z,89.46
2023-05-20T07:02:07.053Z,89.49
2023-05-20T07:04:35.549Z,89.12
2023-05-20T07:07:02.412Z,88.67
2023-05-20T07:09:29.215Z,88.80
2023-05-20T07:11:56.112Z,88.76
2023-05-20T07:14:22.771Z,88.71
2023-05-20T07:16:49.561Z,88.71
2023-05-20T07:19:16.368Z,88.66
2023-05-20T07:21:43.215Z,88.57
2023-05-20T07:24:10.137Z,88.61
2023-05-20T07:26:37.148Z,88.83
2023-05-20T07:29:05.173Z,88.89
2023-05-20T07:31:32.070Z,89.02
2023-05-20T07:33:59.147Z,89.11
2023-05-20T07:36:29.668Z,89.02
2023-05-20T07:39:03.600Z,88.99
2023-05-20T07:41:32.970Z,89.04
2023-05-20T07:43:59.762Z,89.10
2023-05-20T07:46:28.189Z,89.20
2023-05-20T07:48:54.996Z,89.31
2023-05-20T07:51:21.750Z,89.37
2023-05-20T07:53:48.771Z,89.39
2023-05-20T07:56:16.716Z,89.29
2023-05-20T07:58:43.987Z,89.55
2023-05-20T08:01:11.920Z,89.63
2023-05-20T08:03:38.963Z,89.72
2023-05-20T08:06:05.729Z,89.95
2023-05-20T08:08:32.605Z,89.87
2023-05-20T08:11:01.785Z,89.67
2023-05-20T08:13:29.478Z,89.75
2023-05-20T08:15:57.001Z,89.43
2023-05-20T08:18:23.737Z,89.42
2023-05-20T08:20:51.185Z,89.50
2023-05-20T08:23:18.074Z,89.09
2023-05-20T08:25:47.032Z,89.30
2023-05-20T08:28:13.867Z,88.92
2023-05-20T08:30:41.751Z,88.93
2023-05-20T08:33:09.013Z,88.74
2023-05-20T08:35:36.508Z,88.72
2023-05-20T08:38:03.421Z,88.78
2023-05-20T08:40:30.188Z,88.71
2023-05-20T08:42:59.469Z,89.00
2023-05-20T08:45:28.898Z,88.70
2023-05-20T08:47:55.986Z,88.53
2023-05-20T08:50:22.866Z,88.73
2023-05-20T08:52:49.814Z,88.46
2023-05-20T08:55:34.128Z,88.49
2023-05-20T08:58:01.263Z,88.19
2023-05-20T09:00:29.071Z,88.27
2023-05-20T09:02:58.160Z,87.92
2023-05-20T09:05:29.146Z,87.52
2023-05-20T09:08:28.252Z,87.32
2023-05-20T09:10:55.039Z,87.31
2023-05-20T09:13:23.979Z,87.28
2023-05-20T09:15:51.191Z,86.96
2023-05-20T09:18:18.056Z,87.07
2023-05-20T09:20:48.096Z,86.80
2023-05-20T09:23:14.937Z,87.30
2023-05-20T09:25:41.779Z,87.29
2023-05-20T09:28:08.951Z,87.36
2023-05-20T09:30:35.940Z,87.38
2023-05-20T09:33:05.572Z,86.96
2023-05-20T09:35:37.839Z,86.50
2023-05-20T09:38:06.668Z,86.71
2023-05-20T09:40:33.891Z,86.73
2023-05-20T09:43:03.993Z,86.63
2023-05-20T09:45:31.216Z,86.38
2023-05-20T09:48:00.245Z,86.17
2023-05-20T09:50:29.112Z,85.82
2023-05-20T09:52:56.088Z,85.78
2023-05-20T09:55:25.170Z,85.43
2023-05-20T09:57:55.080Z,85.20
2023-05-20T10:00:21.922Z,85.68
2023-05-20T10:02:51.321Z,85.27
2023-05-20T10:05:29.877Z,85.10
2023-05-20T10:08:15.048Z,84.65
2023-05-20T10:10:50.090Z,84.59
2023-05-20T10:13:30.466Z,84.44
2023-05-20T10:16:03.278Z,84.33
2023-05-20T10:18:43.922Z,84.07
2023-05-20T10:21:25.743Z,83.86
2023-05-20T10:23:52.694Z,83.72
2023-05-20T10:26:22.020Z,83.00
2023-05-20T10:28:49.387Z,82.65
2023-05-20T10:31:22.387Z,82.46
2023-05-20T10:33:53.330Z,81.97
2023-05-20T10:36:24.744Z,81.46
2023-05-20T10:38:56.200Z,81.01
2023-05-20T10:41:27.666Z,80.67
2023-05-20T10:44:07.116Z,80.69
2023-05-20T10:46:48.137Z,80.67
2023-05-20T10:49:27.252Z,80.96
2023-05-20T10:51:55.669Z,80.92
2023-05-20T10:54:23.177Z,80.91
2023-05-20T10:56:54.064Z,81.02
2023-05-20T10:59:22.250Z,80.99
2023-05-20T11:01:49.550Z,81.04
2023-05-20T11:04:17.722Z,80.52
2023-05-20T11:06:54.509Z,80.66
2023-05-20T11:09:22.029Z,80.30
2023-05-20T11:11:50.718Z,80.17
2023-05-20T11:14:18.525Z,80.20
2023-05-20T11:16:46.639Z,80.44
2023-05-20T11:19:17.353Z,80.52
2023-05-20T11:21:44.894Z,80.25
2023-05-20T11:24:15.163Z,80.35
2023-05-20T11:26:42.218Z,79.75
2023-05-20T11:29:09.274Z,80.31
2023-05-20T11:31:39.374Z,79.88
2023-05-20T11:34:06.576Z,79.67
2023-05-20T11:36:33.630Z,79.57
2023-05-20T11:39:01.064Z,78.90
2023-05-20T11:41:28.408Z,79.12
2023-05-20T11:43:59.978Z,78.78
2023-05-20T11:46:29.682Z,78.61
2023-05-20T11:48:58.622Z,78.04
2023-05-20T11:51:29.115Z,78.06
2023-05-20T11:54:06.353Z,78.09
2023-05-20T11:56:37.535Z,77.46
2023-05-20T11:59:15.109Z,77.27
2023-05-20T12:01:42.700Z,76.81
2023-05-20T12:04:11.299Z,77.12
2023-05-20T12:06:41.336Z,77.36
2023-05-20T12:09:18.547Z,77.43
2023-05-20T12:11:46.151Z,77.02
2023-05-20T12:14:13.157Z,75.88
2023-05-20T12:16:42.811Z,76.23
2023-05-20T12:19:13.508Z,76.81
2023-05-20T12:21:40.437Z,76.68
2023-05-20T12:24:09.022Z,76.24
2023-05-20T12:26:36.160Z,75.99
2023-05-20T12:29:02.998Z,75.98
2023-05-20T12:31:34.956Z,76.31
2023-05-20T12:34:02.276Z,76.40
2023-05-20T12:36:29.035Z,76.54
2023-05-20T12:38:55.911Z,76.23
2023-05-20T12:41:22.846Z,75.29
2023-05-20T12:43:52.286Z,74.92
2023-05-20T12:46:19.875Z,75.11
2023-05-20T12:48:46.740Z,75.56
2023-05-20T12:51:13.442Z,75.42
2023-05-20T12:53:40.303Z,75.85
2023-05-20T12:56:09.194Z,75.86
2023-05-20T12:58:35.897Z,75.48
2023-05-20T13:01:02.764Z,75.56
2023-05-20T13:03:29.723Z,75.39
2023-05-20T13:05:56.557Z,74.99
2023-05-20T13:08:24.064Z,74.58
2023-05-20T13:10:51.141Z,74.59
2023-05-20T13:13:22.855Z,74.82
2023-05-20T13:15:49.752Z,74.66
2023-05-20T13:18:16.894Z,74.28
2023-05-20T13:20:44.227Z,74.28
2023-05-20T13:23:11.623Z,74.34
2023-05-20T13:25:38.485Z,74.20
2023-05-20T13:28:05.884Z,73.62
2023-05-20T13:30:32.807Z,73.90
2023-05-20T13:32:59.812Z,73.84
2023-05-20T13:35:26.878Z,73.36
2023-05-20T13:37:53.679Z,72.74
2023-05-20T13:40:20.424Z,73.25
2023-05-20T13:42:47.196Z,72.91
2023-05-20T13:45:14.076Z,72.95
2023-05-20T13:47:40.792Z,73.53
2023-05-20T13:50:08.273Z,73.82
2023-05-20T13:52:35.164Z,74.01
2023-05-20T13:55:01.855Z,74.15
2023-05-20T13:57:28.637Z,74.31
2023-05-20T13:59:56.429Z,74.39
2023-05-20T14:02:23.341Z,74.07
2023-05-20T14:04:50.130Z,72.44
2023-05-20T14:07:16.845Z,72.00
2023-05-20T14:09:43.811Z,71.71
2023-05-20T14:12:12.816Z,71.48
2023-05-20T14:14:39.538Z,72.35
2023-05-20T14:17:08.013Z,72.78
2023-05-20T14:19:38.461Z,73.07
2023-05-20T14:22:09.041Z,73.38
2023-05-20T14:24:36.072Z,73.04
2023-05-20T14:27:02.954Z,71.67
2023-05-20T14:29:29.782Z,71.64
2023-05-20T14:31:56.638Z,71.92
2023-05-20T14:34:23.451Z,71.84
2023-05-20T14:36:50.276Z,71.67
2023-05-20T14:39:17.349Z,71.78
2023-05-20T14:41:44.329Z,70.87
2023-05-20T14:44:11.373Z,71.33
2023-05-20T14:46:38.344Z,71.85
2023-05-20T14:49:05.220Z,71.63
2023-05-20T14:51:32.125Z,72.03
2023-05-20T14:53:58.822Z,71.86
2023-05-20T14:56:26.910Z,71.54
2023-05-20T14:58:54.422Z,71.04
2023-05-20T15:01:21.264Z,71.03
2023-05-20T15:03:48.093Z,70.99
2023-05-20T15:06:15.040Z,71.04
2023-05-20T15:08:42.120Z,71.50
2023-05-20T15:11:08.810Z,71.85
2023-05-20T15:13:40.527Z,71.94
2023-05-20T15:16:08.070Z,71.51
2023-05-20T15:18:34.955Z,71.74
2023-05-20T15:21:03.024Z,71.48
2023-05-20T15:23:30.726Z,71.15
2023-05-20T15:26:00.710Z,71.31
2023-05-20T15:28:28.523Z,71.18
2023-05-20T15:30:58.146Z,71.18
2023-05-20T15:33:25.179Z,71.55
2023-05-20T15:35:52.097Z,72.07
2023-05-20T15:38:18.854Z,72.03
2023-05-20T15:40:45.672Z,72.59
2023-05-20T15:43:12.834Z,72.26
2023-05-20T15:45:39.558Z,71.81
2023-05-20T15:48:07.177Z,71.81
2023-05-20T15:50:36.391Z,71.71
2023-05-20T15:53:06.682Z,71.70
2023-05-20T15:55:33.608Z,71.90
2023-05-20T15:58:05.460Z,72.08
2023-05-20T16:00:32.562Z,72.07
2023-05-20T16:02:59.861Z,72.02
2023-05-20T16:05:26.956Z,72.34
2023-05-20T16:07:53.722Z,72.73
2023-05-20T16:10:20.943Z,72.50
2023-05-20T16:12:47.786Z,72.51
2023-05-20T16:15:16.224Z,72.59
2023-05-20T16:17:43.167Z,72.69
2023-05-20T16:20:10.230Z,72.76
2023-05-20T16:22:37.129Z,73.19
2023-05-20T16:25:04.375Z,73.25
2023-05-20T16:27:32.064Z,73.36
2023-05-20T16:29:58.886Z,73.46
2023-05-20T16:32:25.736Z,73.40
2023-05-20T16:34:52.573Z,73.29
2023-05-20T16:37:19.364Z,73.21
2023-05-20T16:39:47.117Z,73.45
2023-05-20T16:42:14.289Z,73.55
2023-05-20T16:44:41.201Z,73.61
2023-05-20T16:47:09.220Z,73.76
2023-05-20T16:49:36.260Z,73.94
2023-05-20T16:52:03.690Z,73.88
2023-05-20T16:54:30.437Z,74.18
2023-05-20T16:56:57.189Z,74.21
2023-05-20T16:59:26.027Z,74.15
2023-05-20T17:01:52.722Z,74.37
2023-05-20T17:04:20.070Z,74.02
2023-05-20T17:06:50.387Z,74.23
2023-05-20T17:09:18.762Z,74.49
2023-05-20T17:11:45.766Z,74.73
2023-05-20T17:14:16.677Z,74.95
2023-05-20T17:16:43.418Z,75.43
2023-05-20T17:19:10.309Z,75.60
2023-05-20T17:21:37.101Z,75.82
2023-05-20T17:24:03.905Z,75.80
2023-05-20T17:26:30.829Z,75.83
2023-05-20T17:28:57.596Z,75.79
2023-05-20T17:31:25.587Z,75.68
2023-05-20T17:33:52.403Z,75.50
2023-05-20T17:36:19.346Z,75.58
2023-05-20T17:38:46.177Z,75.79
2023-05-20T17:41:18.031Z,76.05
2023-05-20T17:43:45.937Z,76.07
2023-05-20T17:46:12.842Z,76.21
2023-05-20T17:48:40.865Z,76.17
2023-05-20T17:51:07.749Z,76.25
2023-05-20T17:53:34.607Z,76.27
2023-05-20T17:56:02.710Z,75.42
2023-05-20T17:58:32.611Z,74.91
2023-05-20T18:01:03.660Z,74.73
2023-05-20T18:03:30.749Z,74.62
2023-05-20T18:05:57.691Z,73.76
2023-05-20T18:08:25.729Z,73.48
2023-05-20T18:10:52.685Z,72.93
2023-05-20T18:13:19.660Z,72.59
2023-05-20T18:15:47.187Z,71.88
2023-05-20T18:18:15.036Z,71.50
2023-05-20T18:20:42.216Z,71.38
2023-05-20T18:23:09.033Z,71.64
2023-05-20T18:25:35.765Z,71.62
2023-05-20T18:28:03.322Z,71.44
2023-05-20T18:30:30.170Z,71.34
2023-05-20T18:32:57.484Z,71.36
2023-05-20T18:35:24.277Z,71.56
2023-05-20T18:37:51.779Z,71.44
2023-05-20T18:40:20.777Z,71.68
2023-05-20T18:42:47.608Z,71.56
2023-05-20T18:45:14.310Z,71.57
2023-05-20T18:47:41.719Z,72.03
2023-05-20T18:50:08.811Z,71.97
2023-05-20T18:52:35.638Z,72.08
2023-05-20T18:55:02.469Z,72.68
2023-05-20T18:57:29.326Z,72.88
2023-05-20T18:59:56.270Z,72.91
2023-05-20T19:02:23.180Z,73.32
2023-05-20T19:04:50.080Z,73.95
2023-05-20T19:07:16.772Z,74.25
2023-05-20T19:09:43.446Z,74.55
2023-05-20T19:12:10.304Z,74.62
2023-05-20T19:14:37.004Z,74.69
2023-05-20T19:17:03.913Z,74.98
2023-05-20T19:19:30.873Z,75.34
2023-05-20T19:21:57.632Z,75.36
2023-05-20T19:24:24.366Z,75.66
2023-05-20T19:26:51.760Z,75.87
2023-05-20T19:29:18.518Z,75.96
2023-05-20T19:31:46.102Z,76.25
2023-05-20T19:34:13.001Z,76.34
2023-05-20T19:36:45.502Z,76.78
2023-05-20T19:39:12.370Z,76.99
2023-05-20T19:41:39.224Z,77.21
2023-05-20T19:44:08.335Z,77.21
2023-05-20T19:46:38.221Z,77.67
2023-05-20T19:49:05.008Z,77.74
2023-05-20T19:51:31.854Z,78.01
2023-05-20T19:53:58.864Z,78.14
2023-05-20T19:56:26.228Z,78.37
2023-05-20T19:58:58.396Z,78.46
2023-05-20T20:01:29.115Z,78.73
2023-05-20T20:03:57.935Z,78.97
2023-05-20T20:06:31.563Z,79.14
2023-05-20T20:08:58.368Z,79.36
2023-05-20T20:11:25.046Z,79.45
2023-05-20T20:13:52.336Z,79.79
2023-05-20T20:16:19.529Z,79.95
2023-05-20T20:18:46.287Z,80.20
2023-05-20T20:21:15.541Z,80.19
2023-05-20T20:23:43.603Z,80.43
2023-05-20T20:26:13.819Z,80.46
2023-05-20T20:28:40.886Z,80.59
2023-05-20T20:31:07.543Z,80.90
2023-05-20T20:33:34.346Z,80.89
2023-05-20T20:36:06.689Z,81.06
2023-05-20T20:38:33.743Z,81.17
2023-05-20T20:41:04.632Z,81.60
2023-05-20T20:43:34.929Z,81.82
2023-05-20T20:46:01.652Z,82.08
2023-05-20T20:48:31.887Z,82.33
2023-05-20T20:50:59.310Z,82.53
2023-05-20T20:53:26.400Z,82.79
2023-05-20T20:55:57.749Z,83.00
2023-05-20T20:58:25.364Z,83.26
2023-05-20T21:00:53.575Z,83.25
2023-05-20T21:03:24.140Z,83.48
2023-05-20T21:05:51.964Z,83.84
2023-05-20T21:08:22.307Z,83.95
2023-05-20T21:10:49.154Z,84.19
2023-05-20T21:13:15.982Z,84.31
2023-05-20T21:15:43.222Z,84.67
2023-05-20T21:18:09.987Z,84.79
2023-05-20T21:20:36.764Z,84.79
2023-05-20T21:23:07.478Z,85.17
2023-05-20T21:25:41.285Z,85.21
2023-05-20T21:28:14.109Z,85.17
2023-05-20T21:30:46.007Z,85.46
2023-05-20T21:33:16.848Z,85.66
2023-05-20T21:35:43.607Z,85.69
2023-05-20T21:38:13.844Z,85.94
2023-05-20T21:40:41.086Z,86.14
2023-05-20T21:43:10.841Z,85.91
2023-05-20T21:45:40.231Z,86.03
2023-05-20T21:48:07.517Z,85.79
2023-05-20T21:50:35.722Z,85.81
2023-05-20T21:53:02.459Z,85.72
2023-05-20T21:55:29.324Z,85.70
2023-05-20T21:57:58.694Z,85.78
2023-05-20T22:00:25.336Z,85.97
2023-05-20T22:02:55.229Z,85.94
2023-05-20T22:05:22.025Z,86.14
2023-05-20T22:07:53.255Z,86.17
2023-05-20T22:10:23.266Z,85.83
2023-05-20T22:12:51.394Z,85.82
2023-05-20T22:15:18.472Z,85.56
2023-05-20T22:17:49.364Z,85.69
2023-05-20T22:20:16.245Z,85.58
2023-05-20T22:22:42.925Z,85.58
2023-05-20T22:25:10.450Z,85.53
2023-05-20T22:27:37.329Z,85.64
2023-05-20T22:30:06.543Z,85.57
2023-05-20T22:32:33.673Z,85.68
2023-05-20T22:35:00.398Z,85.40
2023-05-20T22:37:29.078Z,85.41
2023-05-20T22:39:56.569Z,85.59
2023-05-20T22:42:23.744Z,85.57
2023-05-20T22:44:51.460Z,85.64
2023-05-20T22:47:18.349Z,85.65
2023-05-20T22:49:47.969Z,85.71
2023-05-20T22:52:18.776Z,86.06
2023-05-20T22:54:45.664Z,86.04
2023-05-20T22:57:12.344Z,85.88
2023-05-20T22:59:39.221Z,85.96
2023-05-20T23:02:06.951Z,85.97
2023-05-20T23:04:34.159Z,86.31
2023-05-20T23:07:01.069Z,86.22
2023-05-20T23:09:27.718Z,86.40
2023-05-20T23:11:54.380Z,86.44
2023-05-20T23:14:21.468Z,86.38
2023-05-20T23:16:48.258Z,86.62
2023-05-20T23:19:15.545Z,86.48
2023-05-20T23:21:42.974Z,86.29
2023-05-20T23:24:09.709Z,86.22
2023-05-20T23:26:37.900Z,86.30
2023-05-20T23:29:05.496Z,86.32
2023-05-20T23:31:33.016Z,86.35
2023-05-20T23:33:59.972Z,86.14
2023-05-20T23:36:29.255Z,86.21
2023-05-20T23:38:56.983Z,86.42
2023-05-20T23:41:24.637Z,86.41
2023-05-20T23:43:51.583Z,86.48
2023-05-20T23:46:19.216Z,86.62
2023-05-20T23:48:48.388Z,86.78
2023-05-20T23:51:16.518Z,86.88
2023-05-20T23:53:44.223Z,87.01
2023-05-20T23:56:11.517Z,87.11
2023-05-20T23:58:38.672Z,87.12
